sensor_id;sensor_type;location;lat;lon;timestamp;P1;durP1;ratioP1;P2;durP2;ratioP2
239;SDS011;104;53.590;10.004;2022-11-11T00:00:23;76.00;;;21.13;;
239;SDS011;104;53.590;10.004;2022-11-11T00:02:50;72.80;;;20.13;;
239;SDS011;104;53.590;10.004;2022-11-11T00:05:19;64.30;;;20.33;;
239;SDS011;104;53.590;10.004;2022-11-11T00:07:46;82.77;;;19.50;;
239;SDS011;104;53.590;10.004;2022-11-11T00:10:14;67.27;;;19.53;;
239;SDS011;104;53.590;10.004;2022-11-11T00:12:41;53.20;;;20.60;;
239;SDS011;104;53.590;10.004;2022-11-11T00:15:09;139.83;;;21.97;;
239;SDS011;104;53.590;10.004;2022-11-11T00:17:36;95.33;;;21.67;;
239;SDS011;104;53.590;10.004;2022-11-11T00:20:22;71.03;;;21.57;;
239;SDS011;104;53.590;10.004;2022-11-11T00:23:06;77.33;;;20.00;;
239;SDS011;104;53.590;10.004;2022-11-11T00:26:03;86.93;;;20.40;;
239;SDS011;104;53.590;10.004;2022-11-11T00:28:30;45.93;;;20.70;;
239;SDS011;104;53.590;10.004;2022-11-11T00:31:01;53.97;;;20.17;;
239;SDS011;104;53.590;10.004;2022-11-11T00:33:29;54.80;;;19.17;;
239;SDS011;104;53.590;10.004;2022-11-11T00:35:57;45.27;;;19.13;;
239;SDS011;104;53.590;10.004;2022-11-11T00:38:25;31.43;;;17.90;;
239;SDS011;104;53.590;10.004;2022-11-11T00:41:10;63.50;;;20.67;;
239;SDS011;104;53.590;10.004;2022-11-11T00:43:38;80.37;;;19.33;;
239;SDS011;104;53.590;10.004;2022-11-11T00:46:06;112.90;;;20.53;;
239;SDS011;104;53.590;10.004;2022-11-11T00:48:50;44.70;;;18.70;;
239;SDS011;104;53.590;10.004;2022-11-11T00:51:37;64.03;;;19.03;;
239;SDS011;104;53.590;10.004;2022-11-11T00:54:05;105.53;;;19.90;;
239;SDS011;104;53.590;10.004;2022-11-11T00:56:33;170.13;;;18.93;;
239;SDS011;104;53.590;10.004;2022-11-11T00:59:02;79.10;;;18.90;;
239;SDS011;104;53.590;10.004;2022-11-11T01:01:30;131.20;;;20.80;;
239;SDS011;104;53.590;10.004;2022-11-11T01:03:57;91.20;;;19.93;;
239;SDS011;104;53.590;10.004;2022-11-11T01:06:24;83.40;;;20.03;;
239;SDS011;104;53.590;10.004;2022-11-11T01:08:53;85.10;;;19.87;;
239;SDS011;104;53.590;10.004;2022-11-11T01:11:21;94.67;;;21.13;;
239;SDS011;104;53.590;10.004;2022-11-11T01:13:49;63.20;;;19.30;;
239;SDS011;104;53.590;10.004;2022-11-11T01:16:17;148.53;;;19.43;;
239;SDS011;104;53.590;10.004;2022-11-11T01:18:46;62.90;;;23.40;;
239;SDS011;104;53.590;10.004;2022-11-11T01:21:14;119.40;;;21.00;;
239;SDS011;104;53.590;10.004;2022-11-11T01:23:42;46.27;;;20.37;;
239;SDS011;104;53.590;10.004;2022-11-11T01:26:13;82.57;;;19.57;;
239;SDS011;104;53.590;10.004;2022-11-11T01:28:43;77.13;;;19.10;;
239;SDS011;104;53.590;10.004;2022-11-11T01:31:13;157.90;;;20.50;;
239;SDS011;104;53.590;10.004;2022-11-11T01:33:41;75.20;;;21.10;;
239;SDS011;104;53.590;10.004;2022-11-11T01:36:09;193.07;;;21.50;;
239;SDS011;104;53.590;10.004;2022-11-11T01:38:40;70.40;;;20.67;;
239;SDS011;104;53.590;10.004;2022-11-11T01:41:10;89.50;;;20.57;;
239;SDS011;104;53.590;10.004;2022-11-11T01:43:58;89.87;;;23.00;;
239;SDS011;104;53.590;10.004;2022-11-11T01:46:27;81.80;;;22.07;;
239;SDS011;104;53.590;10.004;2022-11-11T01:49:00;114.17;;;21.70;;
239;SDS011;104;53.590;10.004;2022-11-11T01:51:50;138.23;;;20.67;;
239;SDS011;104;53.590;10.004;2022-11-11T01:54:21;48.63;;;21.60;;
239;SDS011;104;53.590;10.004;2022-11-11T01:56:54;87.87;;;21.87;;
239;SDS011;104;53.590;10.004;2022-11-11T01:59:28;77.20;;;21.10;;
239;SDS011;104;53.590;10.004;2022-11-11T02:01:57;60.77;;;21.20;;
239;SDS011;104;53.590;10.004;2022-11-11T02:04:28;79.63;;;21.30;;
239;SDS011;104;53.590;10.004;2022-11-11T02:07:13;111.30;;;22.60;;
239;SDS011;104;53.590;10.004;2022-11-11T02:09:41;72.83;;;20.50;;
239;SDS011;104;53.590;10.004;2022-11-11T02:12:12;58.17;;;21.87;;
239;SDS011;104;53.590;10.004;2022-11-11T02:14:58;149.30;;;21.10;;
239;SDS011;104;53.590;10.004;2022-11-11T02:17:26;86.17;;;20.60;;
239;SDS011;104;53.590;10.004;2022-11-11T02:19:56;90.70;;;21.10;;
239;SDS011;104;53.590;10.004;2022-11-11T02:22:28;62.73;;;22.80;;
239;SDS011;104;53.590;10.004;2022-11-11T02:25:01;77.37;;;22.50;;
239;SDS011;104;53.590;10.004;2022-11-11T02:27:32;56.87;;;21.20;;
239;SDS011;104;53.590;10.004;2022-11-11T02:30:03;85.17;;;22.10;;
239;SDS011;104;53.590;10.004;2022-11-11T02:32:32;66.50;;;22.90;;
239;SDS011;104;53.590;10.004;2022-11-11T02:34:59;93.20;;;23.13;;
239;SDS011;104;53.590;10.004;2022-11-11T02:37:27;41.17;;;20.63;;
239;SDS011;104;53.590;10.004;2022-11-11T02:39:56;69.40;;;22.80;;
239;SDS011;104;53.590;10.004;2022-11-11T02:42:28;96.93;;;21.17;;
239;SDS011;104;53.590;10.004;2022-11-11T02:44:56;75.50;;;21.07;;
239;SDS011;104;53.590;10.004;2022-11-11T02:47:24;58.33;;;21.53;;
239;SDS011;104;53.590;10.004;2022-11-11T02:49:52;56.33;;;20.90;;
239;SDS011;104;53.590;10.004;2022-11-11T02:52:19;50.57;;;20.70;;
239;SDS011;104;53.590;10.004;2022-11-11T02:54:46;60.47;;;21.47;;
239;SDS011;104;53.590;10.004;2022-11-11T02:57:14;41.63;;;19.53;;
239;SDS011;104;53.590;10.004;2022-11-11T02:59:43;56.77;;;21.83;;
239;SDS011;104;53.590;10.004;2022-11-11T03:02:10;51.87;;;20.90;;
239;SDS011;104;53.590;10.004;2022-11-11T03:04:38;62.70;;;21.13;;
239;SDS011;104;53.590;10.004;2022-11-11T03:07:06;74.10;;;20.80;;
239;SDS011;104;53.590;10.004;2022-11-11T03:09:33;44.80;;;20.60;;
239;SDS011;104;53.590;10.004;2022-11-11T03:12:01;118.27;;;23.17;;
239;SDS011;104;53.590;10.004;2022-11-11T03:14:28;66.30;;;23.13;;
239;SDS011;104;53.590;10.004;2022-11-11T03:16:57;67.93;;;24.20;;
239;SDS011;104;53.590;10.004;2022-11-11T03:19:41;75.67;;;23.43;;
239;SDS011;104;53.590;10.004;2022-11-11T03:22:08;55.27;;;22.17;;
239;SDS011;104;53.590;10.004;2022-11-11T03:24:35;61.67;;;22.50;;
239;SDS011;104;53.590;10.004;2022-11-11T03:27:34;50.80;;;22.13;;
239;SDS011;104;53.590;10.004;2022-11-11T03:30:01;61.57;;;21.53;;
239;SDS011;104;53.590;10.004;2022-11-11T03:32:29;47.17;;;21.20;;
239;SDS011;104;53.590;10.004;2022-11-11T03:34:57;63.73;;;21.60;;
239;SDS011;104;53.590;10.004;2022-11-11T03:37:24;60.37;;;21.23;;
239;SDS011;104;53.590;10.004;2022-11-11T03:40:08;60.97;;;20.83;;
239;SDS011;104;53.590;10.004;2022-11-11T03:42:36;62.77;;;19.70;;
239;SDS011;104;53.590;10.004;2022-11-11T03:45:03;53.93;;;20.27;;
239;SDS011;104;53.590;10.004;2022-11-11T03:47:35;42.70;;;20.70;;
239;SDS011;104;53.590;10.004;2022-11-11T03:50:02;36.07;;;18.97;;
239;SDS011;104;53.590;10.004;2022-11-11T03:52:30;44.90;;;19.43;;
239;SDS011;104;53.590;10.004;2022-11-11T06:46:22;44.50;;;19.70;;
239;SDS011;104;53.590;10.004;2022-11-11T06:48:50;58.83;;;21.00;;
239;SDS011;104;53.590;10.004;2022-11-11T06:51:18;42.07;;;20.80;;
239;SDS011;104;53.590;10.004;2022-11-11T06:53:59;60.13;;;20.43;;
239;SDS011;104;53.590;10.004;2022-11-11T06:56:29;230.20;;;33.33;;
239;SDS011;104;53.590;10.004;2022-11-11T06:59:06;50.47;;;19.37;;
239;SDS011;104;53.590;10.004;2022-11-11T07:01:57;50.60;;;22.57;;
239;SDS011;104;53.590;10.004;2022-11-11T07:04:33;46.63;;;21.17;;
239;SDS011;104;53.590;10.004;2022-11-11T07:07:00;72.60;;;21.87;;
239;SDS011;104;53.590;10.004;2022-11-11T07:09:27;83.97;;;25.10;;
239;SDS011;104;53.590;10.004;2022-11-11T07:11:55;61.57;;;21.00;;
239;SDS011;104;53.590;10.004;2022-11-11T07:14:28;51.33;;;20.60;;
239;SDS011;104;53.590;10.004;2022-11-11T07:17:17;52.70;;;18.80;;
239;SDS011;104;53.590;10.004;2022-11-11T07:19:52;54.73;;;21.83;;
239;SDS011;104;53.590;10.004;2022-11-11T07:22:20;64.03;;;20.50;;
239;SDS011;104;53.590;10.004;2022-11-11T07:24:47;54.60;;;18.80;;
239;SDS011;104;53.590;10.004;2022-11-11T07:27:15;46.27;;;20.77;;
239;SDS011;104;53.590;10.004;2022-11-11T07:29:58;50.30;;;20.53;;
239;SDS011;104;53.590;10.004;2022-11-11T07:32:38;84.27;;;21.03;;
239;SDS011;104;53.590;10.004;2022-11-11T07:35:11;68.00;;;19.87;;
239;SDS011;104;53.590;10.004;2022-11-11T07:37:44;52.27;;;20.50;;
239;SDS011;104;53.590;10.004;2022-11-11T07:40:13;40.40;;;18.30;;
239;SDS011;104;53.590;10.004;2022-11-11T07:42:47;44.60;;;19.23;;
239;SDS011;104;53.590;10.004;2022-11-11T07:45:14;45.93;;;18.97;;
239;SDS011;104;53.590;10.004;2022-11-11T07:47:45;42.60;;;18.70;;
239;SDS011;104;53.590;10.004;2022-11-11T07:50:14;54.37;;;18.00;;
239;SDS011;104;53.590;10.004;2022-11-11T07:52:46;36.10;;;16.00;;
239;SDS011;104;53.590;10.004;2022-11-11T07:55:14;33.20;;;16.50;;
239;SDS011;104;53.590;10.004;2022-11-11T07:57:41;35.40;;;16.93;;
239;SDS011;104;53.590;10.004;2022-11-11T08:00:09;28.97;;;15.40;;
239;SDS011;104;53.590;10.004;2022-11-11T08:02:37;34.10;;;16.20;;
239;SDS011;104;53.590;10.004;2022-11-11T08:05:07;31.70;;;15.10;;
239;SDS011;104;53.590;10.004;2022-11-11T08:07:35;35.90;;;16.77;;
239;SDS011;104;53.590;10.004;2022-11-11T08:10:03;33.03;;;16.10;;
239;SDS011;104;53.590;10.004;2022-11-11T08:12:30;31.70;;;16.03;;
239;SDS011;104;53.590;10.004;2022-11-11T08:15:15;45.47;;;16.83;;
239;SDS011;104;53.590;10.004;2022-11-11T08:17:45;27.83;;;14.97;;
239;SDS011;104;53.590;10.004;2022-11-11T08:20:14;36.47;;;17.53;;
239;SDS011;104;53.590;10.004;2022-11-11T08:22:41;35.90;;;17.93;;
239;SDS011;104;53.590;10.004;2022-11-11T08:25:10;30.10;;;15.67;;
239;SDS011;104;53.590;10.004;2022-11-11T08:27:40;30.67;;;16.13;;
239;SDS011;104;53.590;10.004;2022-11-11T08:30:08;26.93;;;14.87;;
239;SDS011;104;53.590;10.004;2022-11-11T08:32:36;39.67;;;16.60;;
239;SDS011;104;53.590;10.004;2022-11-11T08:35:03;33.33;;;16.40;;
239;SDS011;104;53.590;10.004;2022-11-11T08:37:34;38.33;;;17.03;;
239;SDS011;104;53.590;10.004;2022-11-11T08:40:02;33.07;;;17.10;;
239;SDS011;104;53.590;10.004;2022-11-11T08:42:29;30.90;;;17.10;;
239;SDS011;104;53.590;10.004;2022-11-11T08:45:01;31.43;;;16.90;;
239;SDS011;104;53.590;10.004;2022-11-11T08:47:28;38.57;;;17.67;;
239;SDS011;104;53.590;10.004;2022-11-11T08:49:55;32.20;;;16.47;;
239;SDS011;104;53.590;10.004;2022-11-11T08:52:24;37.17;;;17.87;;
239;SDS011;104;53.590;10.004;2022-11-11T08:54:54;51.77;;;16.87;;
239;SDS011;104;53.590;10.004;2022-11-11T08:57:21;33.03;;;16.60;;
239;SDS011;104;53.590;10.004;2022-11-11T08:59:50;30.13;;;15.30;;
239;SDS011;104;53.590;10.004;2022-11-11T09:02:17;32.53;;;15.50;;
239;SDS011;104;53.590;10.004;2022-11-11T09:04:45;36.53;;;15.30;;
239;SDS011;104;53.590;10.004;2022-11-11T09:20:48;30.37;;;16.47;;
239;SDS011;104;53.590;10.004;2022-11-11T09:23:36;40.90;;;15.33;;
239;SDS011;104;53.590;10.004;2022-11-11T09:26:26;25.87;;;14.77;;
239;SDS011;104;53.590;10.004;2022-11-11T09:31:45;37.23;;;16.03;;
239;SDS011;104;53.590;10.004;2022-11-11T09:34:16;33.83;;;16.10;;
239;SDS011;104;53.590;10.004;2022-11-11T09:37:00;27.30;;;15.10;;
239;SDS011;104;53.590;10.004;2022-11-11T09:39:28;25.40;;;15.07;;
239;SDS011;104;53.590;10.004;2022-11-11T09:42:05;25.47;;;14.50;;
239;SDS011;104;53.590;10.004;2022-11-11T09:45:03;32.37;;;16.73;;
239;SDS011;104;53.590;10.004;2022-11-11T09:47:41;31.17;;;15.30;;
239;SDS011;104;53.590;10.004;2022-11-11T09:50:11;27.97;;;15.70;;
239;SDS011;104;53.590;10.004;2022-11-11T09:52:46;38.83;;;17.50;;
239;SDS011;104;53.590;10.004;2022-11-11T09:55:21;26.73;;;15.20;;
239;SDS011;104;53.590;10.004;2022-11-11T09:57:52;28.73;;;14.90;;
239;SDS011;104;53.590;10.004;2022-11-11T10:00:30;28.40;;;15.23;;
239;SDS011;104;53.590;10.004;2022-11-11T10:03:07;28.40;;;15.67;;
239;SDS011;104;53.590;10.004;2022-11-11T10:05:39;27.20;;;15.43;;
239;SDS011;104;53.590;10.004;2022-11-11T10:08:14;25.73;;;14.83;;
239;SDS011;104;53.590;10.004;2022-11-11T10:10:43;24.70;;;14.80;;
239;SDS011;104;53.590;10.004;2022-11-11T10:13:12;26.60;;;14.90;;
239;SDS011;104;53.590;10.004;2022-11-11T10:15:44;25.93;;;15.10;;
239;SDS011;104;53.590;10.004;2022-11-11T10:21:10;30.30;;;16.93;;
239;SDS011;104;53.590;10.004;2022-11-11T10:23:41;28.90;;;15.10;;
239;SDS011;104;53.590;10.004;2022-11-11T10:26:15;24.37;;;14.30;;
239;SDS011;104;53.590;10.004;2022-11-11T10:28:45;28.53;;;14.57;;
239;SDS011;104;53.590;10.004;2022-11-11T10:31:16;27.57;;;15.27;;
239;SDS011;104;53.590;10.004;2022-11-11T10:33:48;31.23;;;17.30;;
239;SDS011;104;53.590;10.004;2022-11-11T10:36:19;25.83;;;14.77;;
239;SDS011;104;53.590;10.004;2022-11-11T10:38:51;25.07;;;14.53;;
239;SDS011;104;53.590;10.004;2022-11-11T10:41:25;25.70;;;15.53;;
239;SDS011;104;53.590;10.004;2022-11-11T10:43:58;26.20;;;15.10;;
239;SDS011;104;53.590;10.004;2022-11-11T10:46:26;28.80;;;16.00;;
239;SDS011;104;53.590;10.004;2022-11-11T10:48:56;28.20;;;14.17;;
239;SDS011;104;53.590;10.004;2022-11-11T10:51:29;29.70;;;16.10;;
239;SDS011;104;53.590;10.004;2022-11-11T10:54:04;27.90;;;15.57;;
239;SDS011;104;53.590;10.004;2022-11-11T10:56:36;25.57;;;14.97;;
239;SDS011;104;53.590;10.004;2022-11-11T10:59:09;32.47;;;16.50;;
239;SDS011;104;53.590;10.004;2022-11-11T11:01:46;28.20;;;15.60;;
239;SDS011;104;53.590;10.004;2022-11-11T11:04:19;29.47;;;16.53;;
239;SDS011;104;53.590;10.004;2022-11-11T11:06:51;37.33;;;17.00;;
239;SDS011;104;53.590;10.004;2022-11-11T11:09:23;30.00;;;16.57;;
239;SDS011;104;53.590;10.004;2022-11-11T11:11:57;30.00;;;16.50;;
239;SDS011;104;53.590;10.004;2022-11-11T11:14:28;31.53;;;17.60;;
239;SDS011;104;53.590;10.004;2022-11-11T11:16:57;33.90;;;16.90;;
239;SDS011;104;53.590;10.004;2022-11-11T11:19:30;34.60;;;18.00;;
239;SDS011;104;53.590;10.004;2022-11-11T11:21:58;36.13;;;18.70;;
239;SDS011;104;53.590;10.004;2022-11-11T11:24:29;28.93;;;16.40;;
239;SDS011;104;53.590;10.004;2022-11-11T11:26:58;30.40;;;17.17;;
239;SDS011;104;53.590;10.004;2022-11-11T11:29:27;31.60;;;18.00;;
239;SDS011;104;53.590;10.004;2022-11-11T11:32:09;32.30;;;17.70;;
239;SDS011;104;53.590;10.004;2022-11-11T11:34:43;33.47;;;18.70;;
239;SDS011;104;53.590;10.004;2022-11-11T11:37:12;36.80;;;18.63;;
239;SDS011;104;53.590;10.004;2022-11-11T11:39:41;34.57;;;17.30;;
239;SDS011;104;53.590;10.004;2022-11-11T11:44:55;31.53;;;16.70;;
239;SDS011;104;53.590;10.004;2022-11-11T11:47:34;37.27;;;17.10;;
239;SDS011;104;53.590;10.004;2022-11-11T11:50:15;31.13;;;16.80;;
239;SDS011;104;53.590;10.004;2022-11-11T11:52:53;33.00;;;17.53;;
239;SDS011;104;53.590;10.004;2022-11-11T11:55:33;29.70;;;16.90;;
239;SDS011;104;53.590;10.004;2022-11-11T11:58:11;36.50;;;17.60;;
239;SDS011;104;53.590;10.004;2022-11-11T12:00:50;34.73;;;16.63;;
239;SDS011;104;53.590;10.004;2022-11-11T12:03:39;34.10;;;17.00;;
239;SDS011;104;53.590;10.004;2022-11-11T12:06:11;32.03;;;16.27;;
239;SDS011;104;53.590;10.004;2022-11-11T12:08:49;36.40;;;17.23;;
239;SDS011;104;53.590;10.004;2022-11-11T12:11:22;32.43;;;17.20;;
239;SDS011;104;53.590;10.004;2022-11-11T12:14:04;36.33;;;17.10;;
239;SDS011;104;53.590;10.004;2022-11-11T12:16:37;34.33;;;18.47;;
239;SDS011;104;53.590;10.004;2022-11-11T12:19:11;38.40;;;19.10;;
239;SDS011;104;53.590;10.004;2022-11-11T12:21:55;36.60;;;18.03;;
239;SDS011;104;53.590;10.004;2022-11-11T12:24:34;44.17;;;18.97;;
239;SDS011;104;53.590;10.004;2022-11-11T12:27:13;39.97;;;18.63;;
239;SDS011;104;53.590;10.004;2022-11-11T12:29:47;34.20;;;17.57;;
239;SDS011;104;53.590;10.004;2022-11-11T12:32:33;37.50;;;18.13;;
239;SDS011;104;53.590;10.004;2022-11-11T12:35:10;38.83;;;18.37;;
239;SDS011;104;53.590;10.004;2022-11-11T12:37:58;33.80;;;16.87;;
239;SDS011;104;53.590;10.004;2022-11-11T12:40:39;38.83;;;19.57;;
239;SDS011;104;53.590;10.004;2022-11-11T12:43:20;39.37;;;17.80;;
239;SDS011;104;53.590;10.004;2022-11-11T12:45:55;38.63;;;17.83;;
239;SDS011;104;53.590;10.004;2022-11-11T12:48:44;44.70;;;19.43;;
239;SDS011;104;53.590;10.004;2022-11-11T12:51:21;43.33;;;18.90;;
239;SDS011;104;53.590;10.004;2022-11-11T12:54:00;39.90;;;18.87;;
239;SDS011;104;53.590;10.004;2022-11-11T12:56:37;41.03;;;19.67;;
239;SDS011;104;53.590;10.004;2022-11-11T12:59:16;37.57;;;18.93;;
239;SDS011;104;53.590;10.004;2022-11-11T13:01:54;37.90;;;18.80;;
239;SDS011;104;53.590;10.004;2022-11-11T13:04:37;42.70;;;19.40;;
239;SDS011;104;53.590;10.004;2022-11-11T13:07:32;41.37;;;19.30;;
239;SDS011;104;53.590;10.004;2022-11-11T13:10:25;36.70;;;18.07;;
239;SDS011;104;53.590;10.004;2022-11-11T13:13:00;33.77;;;18.00;;
239;SDS011;104;53.590;10.004;2022-11-11T13:15:39;40.07;;;18.93;;
239;SDS011;104;53.590;10.004;2022-11-11T13:18:09;41.97;;;19.83;;
239;SDS011;104;53.590;10.004;2022-11-11T13:20:45;40.40;;;19.43;;
239;SDS011;104;53.590;10.004;2022-11-11T13:23:20;38.57;;;21.13;;
239;SDS011;104;53.590;10.004;2022-11-11T13:25:49;40.23;;;17.70;;
239;SDS011;104;53.590;10.004;2022-11-11T13:28:22;37.53;;;18.40;;
239;SDS011;104;53.590;10.004;2022-11-11T13:30:58;38.10;;;18.47;;
239;SDS011;104;53.590;10.004;2022-11-11T13:33:44;31.67;;;17.20;;
239;SDS011;104;53.590;10.004;2022-11-11T13:36:14;32.47;;;17.63;;
239;SDS011;104;53.590;10.004;2022-11-11T13:38:44;32.00;;;17.83;;
239;SDS011;104;53.590;10.004;2022-11-11T13:41:18;37.47;;;17.90;;
239;SDS011;104;53.590;10.004;2022-11-11T13:43:49;37.20;;;19.67;;
239;SDS011;104;53.590;10.004;2022-11-11T13:46:34;31.67;;;17.83;;
239;SDS011;104;53.590;10.004;2022-11-11T13:49:07;40.00;;;19.80;;
239;SDS011;104;53.590;10.004;2022-11-11T13:51:46;43.30;;;18.90;;
239;SDS011;104;53.590;10.004;2022-11-11T13:54:23;38.00;;;18.27;;
239;SDS011;104;53.590;10.004;2022-11-11T13:56:59;41.20;;;20.10;;
239;SDS011;104;53.590;10.004;2022-11-11T13:59:34;43.67;;;19.60;;
239;SDS011;104;53.590;10.004;2022-11-11T14:02:24;37.13;;;19.40;;
239;SDS011;104;53.590;10.004;2022-11-11T14:05:17;41.37;;;20.17;;
239;SDS011;104;53.590;10.004;2022-11-11T14:07:51;45.27;;;20.00;;
239;SDS011;104;53.590;10.004;2022-11-11T14:10:43;42.57;;;21.83;;
239;SDS011;104;53.590;10.004;2022-11-11T14:16:10;50.13;;;22.23;;
239;SDS011;104;53.590;10.004;2022-11-11T14:18:41;50.10;;;23.87;;
239;SDS011;104;53.590;10.004;2022-11-11T14:21:09;45.40;;;22.77;;
239;SDS011;104;53.590;10.004;2022-11-11T14:23:37;43.73;;;21.43;;
239;SDS011;104;53.590;10.004;2022-11-11T14:26:21;42.97;;;21.23;;
239;SDS011;104;53.590;10.004;2022-11-11T14:28:57;50.10;;;21.53;;
239;SDS011;104;53.590;10.004;2022-11-11T14:31:40;45.17;;;21.93;;
239;SDS011;104;53.590;10.004;2022-11-11T14:37:50;49.93;;;24.53;;
239;SDS011;104;53.590;10.004;2022-11-11T14:40:24;54.43;;;25.30;;
239;SDS011;104;53.590;10.004;2022-11-11T14:42:53;51.77;;;23.43;;
239;SDS011;104;53.590;10.004;2022-11-11T14:51:39;47.50;;;22.83;;
239;SDS011;104;53.590;10.004;2022-11-11T14:54:17;45.10;;;22.40;;
239;SDS011;104;53.590;10.004;2022-11-11T14:56:54;48.33;;;23.43;;
239;SDS011;104;53.590;10.004;2022-11-11T14:59:23;49.80;;;24.00;;
239;SDS011;104;53.590;10.004;2022-11-11T15:01:53;48.37;;;22.80;;
239;SDS011;104;53.590;10.004;2022-11-11T15:04:21;46.83;;;22.97;;
239;SDS011;104;53.590;10.004;2022-11-11T15:06:49;43.97;;;22.00;;
239;SDS011;104;53.590;10.004;2022-11-11T15:09:35;46.40;;;22.80;;
239;SDS011;104;53.590;10.004;2022-11-11T15:12:27;47.50;;;23.17;;
239;SDS011;104;53.590;10.004;2022-11-11T15:15:09;47.03;;;23.00;;
239;SDS011;104;53.590;10.004;2022-11-11T15:17:42;51.60;;;23.57;;
239;SDS011;104;53.590;10.004;2022-11-11T15:20:28;52.77;;;24.30;;
239;SDS011;104;53.590;10.004;2022-11-11T15:23:07;47.87;;;23.00;;
239;SDS011;104;53.590;10.004;2022-11-11T15:25:40;56.17;;;24.27;;
239;SDS011;104;53.590;10.004;2022-11-11T15:28:20;53.23;;;24.17;;
239;SDS011;104;53.590;10.004;2022-11-11T16:02:15;104.87;;;30.90;;
239;SDS011;104;53.590;10.004;2022-11-11T16:04:45;58.83;;;26.00;;
239;SDS011;104;53.590;10.004;2022-11-11T16:07:18;65.03;;;26.20;;
239;SDS011;104;53.590;10.004;2022-11-11T16:09:48;64.07;;;28.03;;
239;SDS011;104;53.590;10.004;2022-11-11T16:12:17;63.20;;;26.83;;
239;SDS011;104;53.590;10.004;2022-11-11T16:14:54;63.63;;;26.47;;
239;SDS011;104;53.590;10.004;2022-11-11T16:17:25;71.50;;;28.93;;
239;SDS011;104;53.590;10.004;2022-11-11T16:19:55;63.50;;;27.60;;
239;SDS011;104;53.590;10.004;2022-11-11T16:22:23;65.63;;;28.00;;
239;SDS011;104;53.590;10.004;2022-11-11T16:24:53;65.33;;;25.40;;
239;SDS011;104;53.590;10.004;2022-11-11T16:27:23;62.60;;;26.93;;
239;SDS011;104;53.590;10.004;2022-11-11T16:29:54;55.47;;;27.20;;
239;SDS011;104;53.590;10.004;2022-11-11T16:32:35;69.10;;;27.23;;
239;SDS011;104;53.590;10.004;2022-11-11T16:37:53;57.90;;;26.90;;
239;SDS011;104;53.590;10.004;2022-11-11T16:40:24;76.53;;;28.27;;
239;SDS011;104;53.590;10.004;2022-11-11T16:43:14;56.07;;;26.53;;
239;SDS011;104;53.590;10.004;2022-11-11T16:45:47;64.07;;;28.40;;
239;SDS011;104;53.590;10.004;2022-11-11T16:51:17;63.97;;;28.37;;
239;SDS011;104;53.590;10.004;2022-11-11T16:53:52;74.23;;;27.00;;
239;SDS011;104;53.590;10.004;2022-11-11T16:56:32;61.00;;;27.67;;
239;SDS011;104;53.590;10.004;2022-11-11T16:59:02;61.23;;;27.37;;
239;SDS011;104;53.590;10.004;2022-11-11T17:01:39;63.17;;;27.70;;
239;SDS011;104;53.590;10.004;2022-11-11T17:04:08;64.10;;;27.73;;
239;SDS011;104;53.590;10.004;2022-11-11T17:06:48;58.00;;;27.27;;
239;SDS011;104;53.590;10.004;2022-11-11T17:09:29;64.57;;;29.00;;
239;SDS011;104;53.590;10.004;2022-11-11T17:11:57;62.77;;;28.20;;
239;SDS011;104;53.590;10.004;2022-11-11T17:14:25;67.83;;;30.07;;
239;SDS011;104;53.590;10.004;2022-11-11T17:16:56;60.60;;;28.00;;
239;SDS011;104;53.590;10.004;2022-11-11T17:19:23;65.27;;;28.03;;
239;SDS011;104;53.590;10.004;2022-11-11T17:21:52;71.80;;;28.90;;
239;SDS011;104;53.590;10.004;2022-11-11T17:24:19;60.53;;;27.13;;
239;SDS011;104;53.590;10.004;2022-11-11T17:26:46;76.63;;;28.00;;
239;SDS011;104;53.590;10.004;2022-11-11T17:29:13;69.63;;;27.80;;
239;SDS011;104;53.590;10.004;2022-11-11T17:31:40;62.63;;;27.67;;
239;SDS011;104;53.590;10.004;2022-11-11T17:34:08;73.37;;;27.93;;
239;SDS011;104;53.590;10.004;2022-11-11T17:36:36;66.83;;;28.17;;
239;SDS011;104;53.590;10.004;2022-11-11T17:39:05;62.00;;;28.73;;
239;SDS011;104;53.590;10.004;2022-11-11T17:41:32;85.83;;;33.70;;
239;SDS011;104;53.590;10.004;2022-11-11T17:43:59;70.60;;;30.10;;
239;SDS011;104;53.590;10.004;2022-11-11T17:46:27;56.33;;;26.60;;
239;SDS011;104;53.590;10.004;2022-11-11T17:48:54;46.53;;;22.50;;
239;SDS011;104;53.590;10.004;2022-11-11T17:51:21;48.30;;;22.60;;
239;SDS011;104;53.590;10.004;2022-11-11T17:53:49;57.33;;;22.00;;
239;SDS011;104;53.590;10.004;2022-11-11T17:56:21;53.43;;;22.47;;
239;SDS011;104;53.590;10.004;2022-11-11T17:58:50;54.33;;;24.03;;
239;SDS011;104;53.590;10.004;2022-11-11T18:01:19;51.93;;;22.43;;
239;SDS011;104;53.590;10.004;2022-11-11T18:03:47;67.03;;;23.67;;
239;SDS011;104;53.590;10.004;2022-11-11T18:06:14;93.33;;;23.90;;
239;SDS011;104;53.590;10.004;2022-11-11T18:08:41;62.37;;;24.17;;
239;SDS011;104;53.590;10.004;2022-11-11T18:11:08;57.20;;;24.30;;
239;SDS011;104;53.590;10.004;2022-11-11T18:13:36;59.47;;;24.03;;
239;SDS011;104;53.590;10.004;2022-11-11T18:16:04;116.17;;;26.70;;
239;SDS011;104;53.590;10.004;2022-11-11T18:18:31;61.00;;;25.70;;
239;SDS011;104;53.590;10.004;2022-11-11T18:20:59;61.13;;;24.30;;
239;SDS011;104;53.590;10.004;2022-11-11T18:23:31;89.37;;;31.50;;
239;SDS011;104;53.590;10.004;2022-11-11T18:25:58;199.43;;;25.93;;
239;SDS011;104;53.590;10.004;2022-11-11T18:28:29;91.77;;;25.87;;
239;SDS011;104;53.590;10.004;2022-11-11T18:31:02;98.57;;;26.90;;
239;SDS011;104;53.590;10.004;2022-11-11T18:33:33;70.10;;;26.40;;
239;SDS011;104;53.590;10.004;2022-11-11T18:36:02;95.50;;;35.17;;
239;SDS011;104;53.590;10.004;2022-11-11T18:38:30;120.63;;;36.53;;
239;SDS011;104;53.590;10.004;2022-11-11T18:41:00;78.80;;;29.70;;
239;SDS011;104;53.590;10.004;2022-11-11T18:43:31;77.70;;;27.57;;
239;SDS011;104;53.590;10.004;2022-11-11T18:46:11;96.50;;;25.50;;
239;SDS011;104;53.590;10.004;2022-11-11T18:48:39;84.93;;;29.20;;
239;SDS011;104;53.590;10.004;2022-11-11T18:51:07;74.70;;;30.80;;
239;SDS011;104;53.590;10.004;2022-11-11T18:53:36;121.47;;;26.87;;
239;SDS011;104;53.590;10.004;2022-11-11T18:56:04;65.00;;;25.63;;
239;SDS011;104;53.590;10.004;2022-11-11T18:58:33;119.13;;;32.83;;
239;SDS011;104;53.590;10.004;2022-11-11T19:01:02;79.03;;;32.60;;
239;SDS011;104;53.590;10.004;2022-11-11T19:03:30;99.90;;;31.30;;
239;SDS011;104;53.590;10.004;2022-11-11T19:05:58;71.17;;;26.40;;
239;SDS011;104;53.590;10.004;2022-11-11T19:08:26;92.70;;;34.77;;
239;SDS011;104;53.590;10.004;2022-11-11T19:10:54;74.33;;;30.33;;
239;SDS011;104;53.590;10.004;2022-11-11T19:13:21;79.13;;;26.93;;
239;SDS011;104;53.590;10.004;2022-11-11T19:15:48;68.63;;;27.90;;
239;SDS011;104;53.590;10.004;2022-11-11T19:18:16;95.60;;;25.73;;
239;SDS011;104;53.590;10.004;2022-11-11T19:20:44;69.40;;;29.23;;
239;SDS011;104;53.590;10.004;2022-11-11T19:23:12;57.37;;;23.90;;
239;SDS011;104;53.590;10.004;2022-11-11T19:25:39;53.73;;;24.23;;
239;SDS011;104;53.590;10.004;2022-11-11T19:28:06;70.90;;;26.60;;
239;SDS011;104;53.590;10.004;2022-11-11T19:30:34;68.53;;;24.50;;
239;SDS011;104;53.590;10.004;2022-11-11T19:33:01;103.83;;;26.40;;
239;SDS011;104;53.590;10.004;2022-11-11T19:35:30;66.30;;;27.60;;